John H. — WAC6768 — position and weather

sailwx.info

Track history (hours):
 
Tides and Currents Weather Stations Pressure Air Temp Water Temp Dewpoint Dewpoint Depression Visibility Wind Speed Wind Dir Waves Ship Positions

John H.

Owner: CROSS SOUND FERRY SERVICE INC, NEW LOUDON, CT. More information available from US FCC via Universal Licensing System and Coast Guard Vessel Documentation Center.

Last reported at 2016-Feb-01 00:33 UTC. Time now 2016-Feb-06 09:19 UTC.
Position N 41°14' W 072°09'.

Length 70 m.

Type: Passenger vessel. MMSI: 366934890.

Date/timePositionNaut miles runAvg speedWind from/ knotsBaromVisibWave heightAir tempDewpointWater temp
2016-Feb-01 00:33N 41°14' W 072°09'6 5.3
2016-Jan-31 23:25N 41°09' W 072°14'910.8
2016-Jan-31 22:33N 41°16' W 072°07'4 2.0
2016-Jan-31 20:33N 41°13' W 072°10'5 4.1
2016-Jan-31 19:16N 41°09' W 072°14'912.3
2016-Jan-31 18:32N 41°16' W 072°07'4 2.2
2016-Jan-31 16:33N 41°13' W 072°11'5 4.7
2016-Jan-31 15:33N 41°09' W 072°14'1010.0
2016-Jan-31 14:32N 41°17' W 072°06'5 2.4
2016-Jan-31 12:33N 41°13' W 072°10'5 0.5
2016-Jan-31 01:19N 41°09' W 072°14'911.0
2016-Jan-31 00:32N 41°16' W 072°07'3 1.4
2016-Jan-30 22:34N 41°14' W 072°09'6 4.5
2016-Jan-30 21:15N 41°09' W 072°14'811.6
2016-Jan-30 20:33N 41°16' W 072°08'3 1.5
2016-Jan-30 18:33N 41°13' W 072°10'5 4.2
2016-Jan-30 17:19N 41°09' W 072°14'912.3
2016-Jan-30 16:33N 41°17' W 072°07'5 2.6
2016-Jan-30 14:28N 41°12' W 072°11'4 3.3
2016-Jan-30 13:14N 41°09' W 072°14'811.7
2016-Jan-30 12:33N 41°16' W 072°08'2 0.2
2016-Jan-30 00:33N 41°14' W 072°09'6 5.0
2016-Jan-29 23:23N 41°09' W 072°14'910.7
2016-Jan-29 22:33N 41°16' W 072°07'5 2.4
2016-Jan-29 20:31N 41°12' W 072°11'4 3.4
2016-Jan-29 19:18N 41°09' W 072°14'1011.9
2016-Jan-29 18:30N 41°17' W 072°07'2 1.3
2016-Jan-29 17:07N 41°18' W 072°05'711.7
2016-Jan-29 16:31N 41°13' W 072°11'4 3.6
2016-Jan-29 15:19N 41°09' W 072°14'911.7
2016-Jan-29 14:32N 41°16' W 072°07'3 2.1
2016-Jan-29 13:09N 41°19' W 072°05'712.1
2016-Jan-29 12:34N 41°14' W 072°11'5 0.4
2016-Jan-29 01:28N 41°09' W 072°14'9 9.4
2016-Jan-29 00:32N 41°16' W 072°07'3 1.5
2016-Jan-28 22:34N 41°14' W 072°10'6 5.2
2016-Jan-28 21:27N 41°09' W 072°14'1010.8
2016-Jan-28 20:33N 41°17' W 072°06'6 2.8
2016-Jan-28 18:28N 41°13' W 072°11'5 2.4
2016-Jan-28 16:33N 41°16' W 072°08'4 1.7
2016-Jan-28 14:33N 41°13' W 072°10'5 4.1
2016-Jan-28 13:18N 41°09' W 072°14'911.3
2016-Jan-28 12:31N 41°16' W 072°07'3 0.3
2016-Jan-28 00:33N 41°13' W 072°09'6 4.6
2016-Jan-27 23:19N 41°09' W 072°14'810.6
2016-Jan-27 22:33N 41°15' W 072°08'3 1.2
2016-Jan-27 20:33N 41°13' W 072°10'6 4.5
2016-Jan-27 19:20N 41°09' W 072°14'11 5.4
2016-Jan-27 17:14N 41°18' W 072°05'811.5
2016-Jan-27 16:33N 41°12' W 072°12'3 2.8
2016-Jan-27 15:19N 41°09' W 072°14'1012.7
2016-Jan-27 14:32N 41°17' W 072°06'1 0.8
2016-Jan-27 13:08N 41°18' W 072°05'812.0
2016-Jan-27 12:30N 41°12' W 072°12'4 0.3
2016-Jan-27 01:20N 41°09' W 072°14'911.3
2016-Jan-27 00:33N 41°16' W 072°07'4 2.2
2016-Jan-26 22:32N 41°13' W 072°11'4 4.0
2016-Jan-26 21:26N 41°09' W 072°14'1011.0
2016-Jan-26 20:34N 41°17' W 072°06'5 2.5
2016-Jan-26 18:32N 41°13' W 072°11'4 3.8
2016-Jan-26 17:22N 41°09' W 072°14'4 1.3
2016-Jan-26 14:33N 41°12' W 072°12'4 3.0
2016-Jan-26 13:20N 41°09' W 072°14'911.9
2016-Jan-26 12:32N 41°17' W 072°07'4 0.3
2016-Jan-26 00:33N 41°14' W 072°10'6 4.7
2016-Jan-25 23:18N 41°09' W 072°14'911.6
2016-Jan-25 22:32N 41°16' W 072°07'3 1.6
2016-Jan-25 20:33N 41°13' W 072°09'5 4.2
2016-Jan-25 19:17N 41°09' W 072°14'4 1.3
2016-Jan-25 16:29N 41°12' W 072°11'4 3.5
2016-Jan-25 15:21N 41°09' W 072°14'4 1.2
2016-Jan-25 12:27N 41°12' W 072°12'4 0.3
2016-Jan-25 01:15N 41°09' W 072°14'812.2
2016-Jan-25 00:33N 41°16' W 072°07'3 1.5
2016-Jan-24 22:34N 41°13' W 072°10'5 4.3
2016-Jan-24 21:17N 41°09' W 072°14'911.5
2016-Jan-24 20:30N 41°16' W 072°07'5 2.4
2016-Jan-24 18:29N 41°12' W 072°11'4 3.2
2016-Jan-24 17:14N 41°09' W 072°14'912.3
2016-Jan-24 16:32N 41°16' W 072°07'1 0.0
2016-Jan-23 02:13N 41°15' W 072°08'811.6
2016-Jan-23 01:31N 41°09' W 072°14'9 8.9
2016-Jan-23 00:34N 41°16' W 072°08'4 1.9
2016-Jan-22 22:32N 41°13' W 072°11'4 3.6
2016-Jan-22 21:19N 41°09' W 072°14'911.2
2016-Jan-22 20:33N 41°16' W 072°07'3 1.5
2016-Jan-22 18:33N 41°14' W 072°09'5 4.2
2016-Jan-22 17:15N 41°09' W 072°14'811.3
2016-Jan-22 16:33N 41°16' W 072°08'3 1.5
2016-Jan-22 14:33N 41°13' W 072°10'5 4.1
2016-Jan-22 13:15N 41°09' W 072°14'912.1
2016-Jan-22 12:33N 41°16' W 072°07'  
Track history (hours):
 
Tides and Currents Weather Stations Pressure Air Temp Water Temp Dewpoint Dewpoint Depression Visibility Wind Speed Wind Dir Waves Ship Positions

John H.

Owner: CROSS SOUND FERRY SERVICE INC, NEW LOUDON, CT. More information available from US FCC via Universal Licensing System and Coast Guard Vessel Documentation Center.

Last reported at 2016-Feb-01 00:33 UTC. Time now 2016-Feb-06 09:19 UTC.
Position N 41°14' W 072°09'.

Length 70 m.

Type: Passenger vessel. MMSI: 366934890.

Date/timePositionNaut miles runAvg speedWind from/ knotsBaromVisibWave heightAir tempDewpointWater temp
2016-Feb-01 00:33N 41°14' W 072°09'6 5.3
2016-Jan-31 23:25N 41°09' W 072°14'910.8
2016-Jan-31 22:33N 41°16' W 072°07'4 2.0
2016-Jan-31 20:33N 41°13' W 072°10'5 4.1
2016-Jan-31 19:16N 41°09' W 072°14'912.3
2016-Jan-31 18:32N 41°16' W 072°07'4 2.2
2016-Jan-31 16:33N 41°13' W 072°11'5 4.7
2016-Jan-31 15:33N 41°09' W 072°14'1010.0
2016-Jan-31 14:32N 41°17' W 072°06'5 2.4
2016-Jan-31 12:33N 41°13' W 072°10'5 0.5
2016-Jan-31 01:19N 41°09' W 072°14'911.0
2016-Jan-31 00:32N 41°16' W 072°07'3 1.4
2016-Jan-30 22:34N 41°14' W 072°09'6 4.5
2016-Jan-30 21:15N 41°09' W 072°14'811.6
2016-Jan-30 20:33N 41°16' W 072°08'3 1.5
2016-Jan-30 18:33N 41°13' W 072°10'5 4.2
2016-Jan-30 17:19N 41°09' W 072°14'912.3
2016-Jan-30 16:33N 41°17' W 072°07'5 2.6
2016-Jan-30 14:28N 41°12' W 072°11'4 3.3
2016-Jan-30 13:14N 41°09' W 072°14'811.7
2016-Jan-30 12:33N 41°16' W 072°08'2 0.2
2016-Jan-30 00:33N 41°14' W 072°09'6 5.0
2016-Jan-29 23:23N 41°09' W 072°14'910.7
2016-Jan-29 22:33N 41°16' W 072°07'5 2.4
2016-Jan-29 20:31N 41°12' W 072°11'4 3.4
2016-Jan-29 19:18N 41°09' W 072°14'1011.9
2016-Jan-29 18:30N 41°17' W 072°07'2 1.3
2016-Jan-29 17:07N 41°18' W 072°05'711.7
2016-Jan-29 16:31N 41°13' W 072°11'4 3.6
2016-Jan-29 15:19N 41°09' W 072°14'911.7
2016-Jan-29 14:32N 41°16' W 072°07'3 2.1
2016-Jan-29 13:09N 41°19' W 072°05'712.1
2016-Jan-29 12:34N 41°14' W 072°11'5 0.4
2016-Jan-29 01:28N 41°09' W 072°14'9 9.4
2016-Jan-29 00:32N 41°16' W 072°07'3 1.5
2016-Jan-28 22:34N 41°14' W 072°10'6 5.2
2016-Jan-28 21:27N 41°09' W 072°14'1010.8
2016-Jan-28 20:33N 41°17' W 072°06'6 2.8
2016-Jan-28 18:28N 41°13' W 072°11'5 2.4
2016-Jan-28 16:33N 41°16' W 072°08'4 1.7
2016-Jan-28 14:33N 41°13' W 072°10'5 4.1
2016-Jan-28 13:18N 41°09' W 072°14'911.3
2016-Jan-28 12:31N 41°16' W 072°07'3 0.3
2016-Jan-28 00:33N 41°13' W 072°09'6 4.6
2016-Jan-27 23:19N 41°09' W 072°14'810.6
2016-Jan-27 22:33N 41°15' W 072°08'3 1.2
2016-Jan-27 20:33N 41°13' W 072°10'6 4.5
2016-Jan-27 19:20N 41°09' W 072°14'11 5.4
2016-Jan-27 17:14N 41°18' W 072°05'811.5
2016-Jan-27 16:33N 41°12' W 072°12'3 2.8
2016-Jan-27 15:19N 41°09' W 072°14'1012.7
2016-Jan-27 14:32N 41°17' W 072°06'1 0.8
2016-Jan-27 13:08N 41°18' W 072°05'812.0
2016-Jan-27 12:30N 41°12' W 072°12'4 0.3
2016-Jan-27 01:20N 41°09' W 072°14'911.3
2016-Jan-27 00:33N 41°16' W 072°07'4 2.2
2016-Jan-26 22:32N 41°13' W 072°11'4 4.0
2016-Jan-26 21:26N 41°09' W 072°14'1011.0
2016-Jan-26 20:34N 41°17' W 072°06'5 2.5
2016-Jan-26 18:32N 41°13' W 072°11'4 3.8
2016-Jan-26 17:22N 41°09' W 072°14'4 1.3
2016-Jan-26 14:33N 41°12' W 072°12'4 3.0
2016-Jan-26 13:20N 41°09' W 072°14'911.9
2016-Jan-26 12:32N 41°17' W 072°07'4 0.3
2016-Jan-26 00:33N 41°14' W 072°10'6 4.7
2016-Jan-25 23:18N 41°09' W 072°14'911.6
2016-Jan-25 22:32N 41°16' W 072°07'3 1.6
2016-Jan-25 20:33N 41°13' W 072°09'5 4.2
2016-Jan-25 19:17N 41°09' W 072°14'4 1.3
2016-Jan-25 16:29N 41°12' W 072°11'4 3.5
2016-Jan-25 15:21N 41°09' W 072°14'4 1.2
2016-Jan-25 12:27N 41°12' W 072°12'4 0.3
2016-Jan-25 01:15N 41°09' W 072°14'812.2
2016-Jan-25 00:33N 41°16' W 072°07'3 1.5
2016-Jan-24 22:34N 41°13' W 072°10'5 4.3
2016-Jan-24 21:17N 41°09' W 072°14'911.5
2016-Jan-24 20:30N 41°16' W 072°07'5 2.4
2016-Jan-24 18:29N 41°12' W 072°11'4 3.2
2016-Jan-24 17:14N 41°09' W 072°14'912.3
2016-Jan-24 16:32N 41°16' W 072°07'1 0.0
2016-Jan-23 02:13N 41°15' W 072°08'811.6
2016-Jan-23 01:31N 41°09' W 072°14'9 8.9
2016-Jan-23 00:34N 41°16' W 072°08'4 1.9
2016-Jan-22 22:32N 41°13' W 072°11'4 3.6
2016-Jan-22 21:19N 41°09' W 072°14'911.2
2016-Jan-22 20:33N 41°16' W 072°07'3 1.5
2016-Jan-22 18:33N 41°14' W 072°09'5 4.2
2016-Jan-22 17:15N 41°09' W 072°14'811.3
2016-Jan-22 16:33N 41°16' W 072°08'3 1.5
2016-Jan-22 14:33N 41°13' W 072°10'5 4.1
2016-Jan-22 13:15N 41°09' W 072°14'912.1
2016-Jan-22 12:33N 41°16' W 072°07'  

Dump ship's entire track history